• Join FlightAware (Why Join?)
  • Login
  • US Flag 
07:53PM EDT


 

Airport Tracker/Info


-or-


 

Live Flight TrackerFlight Track Log ✈ N53NW ✈ 08-Jul-2013 ✈ KHPN - KPNE

Flight Track Log - Related Links

Times and Time Zones

All times are in EDT time to prevent confusion due to time zone crossing. See the N53NW flight status page for this flight to view local times or setup timezone preferences in your user account.

Time Position Orientation Groundspeed Altitude Reporting Facility
EDT Latitude Longitude Course Direction KTS MPH feet Rate Location/Type
09:25AM 41.1000 -73.7667 270° West 220 253 3,300  Level New York TRACON
09:26AM 41.1167 -73.8500 285° West 252 290 6,200 2,340 Climbing New York TRACON
09:27AM 41.1167 -73.9500 270° West 259 298 8,000 900 Climbing New York TRACON
09:28AM 41.1000 -74.0333 255° West 254 292 8,000  Level New York TRACON
09:29AM 41.1000 -74.1333 270° West 255 293 8,000  Level New York TRACON
09:30AM 41.0670 -74.1642 270° West  Level FlightAware Approximate
09:30AM 41.1000 -74.2333 270° West 255 293 8,000  Level New York TRACON
09:31AM 41.0833 -74.3167 255° West 256 295 8,000  Level New York TRACON
09:32AM 41.0833 -74.4167 270° West 256 295 8,000  Level New York TRACON
09:33AM 41.0667 -74.5000 255° West 255 293 8,000  Level New York TRACON
09:34AM 41.0167 -74.5667 225° Southwest 268 308 8,000  Level New York TRACON
09:35AM 40.9500 -74.5833 191° South 261 300 8,000  Level New York TRACON
09:36AM 40.8667 -74.6167 197° South 257 296 8,000  Level New York TRACON
09:37AM 40.8000 -74.6500 201° Southwest 258 297 8,000  Level New York TRACON
09:38AM 40.7333 -74.6833 201° Southwest 257 296 8,000 -480 Level New York TRACON
09:39AM 40.6667 -74.7000 191° South 259 298 7,100 -1,080 Descending New York TRACON
09:40AM 40.6000 -74.7333 201° Southwest 260 299 5,900 -1,080 Descending New York TRACON
09:41AM 40.4667 -74.8000 201° Southwest 255 293 4,100 -720 Descending Philadelphia TRACON
09:42AM 40.4167 -74.8333 207° Southwest 247 284 4,000 -480 Descending Philadelphia TRACON
09:43AM 40.3500 -74.8667 201° Southwest 236 272 3,200 -540 Descending Philadelphia TRACON
09:44AM 40.3000 -74.8833 194° South 216 249 3,000 -180 Descending Philadelphia TRACON
09:46AM 40.2167 -74.9167 197° South 242 278 2,900 -480 Descending Philadelphia TRACON
09:46AM 40.1667 -74.9333 194° South 219 252 2,100 -960 Descending Philadelphia TRACON
09:48AM 40.1167 -74.9500 194° South 135 155 1,000 -840 Descending Philadelphia TRACON
09:49AM 40.1000 -74.9833 237° Southwest 96 110 400 -600 Descending Philadelphia TRACON
09:51AM 40.0819 -75.0106 197° South  Level Estimated